createdAt,value
2017-11-17T00:00:37.314Z,1015.55
2017-11-17T00:01:37.290Z,1015.52
2017-11-17T00:02:37.240Z,1015.46
2017-11-17T00:03:37.204Z,1015.53
2017-11-17T00:04:37.447Z,1015.54
2017-11-17T00:05:37.125Z,1015.58
2017-11-17T00:06:37.095Z,1015.52
2017-11-17T00:07:37.058Z,1015.57
2017-11-17T00:08:37.022Z,1015.53
2017-11-17T00:09:36.986Z,1015.57
2017-11-17T00:10:36.949Z,1015.60
2017-11-17T00:11:36.914Z,1015.57
2017-11-17T00:12:36.877Z,1015.59
2017-11-17T00:13:36.853Z,1015.59
2017-11-17T00:14:36.821Z,1015.60
2017-11-17T00:15:36.762Z,1015.60
2017-11-17T00:16:36.741Z,1015.57
2017-11-17T00:17:36.693Z,1015.60
2017-11-17T00:18:36.658Z,1015.62
2017-11-17T00:19:36.646Z,1015.64
2017-11-17T00:20:36.587Z,1015.62
2017-11-17T00:21:36.575Z,1015.66
2017-11-17T00:22:36.507Z,1015.59
2017-11-17T00:23:36.470Z,1015.60
2017-11-17T00:24:36.440Z,1015.59
2017-11-17T00:25:36.404Z,1015.51
2017-11-17T00:26:36.371Z,1015.43
2017-11-17T00:27:36.332Z,1015.49
2017-11-17T00:28:36.296Z,1015.51
2017-11-17T00:29:36.259Z,1015.49
2017-11-17T00:30:36.223Z,1015.54
2017-11-17T00:31:36.186Z,1015.40
2017-11-17T00:32:36.152Z,1015.44
2017-11-17T00:33:36.106Z,1015.47
2017-11-17T00:34:36.077Z,1015.49
2017-11-17T00:35:36.062Z,1015.50
2017-11-17T00:36:36.004Z,1015.51
2017-11-17T00:37:35.967Z,1015.52
2017-11-17T00:38:35.924Z,1015.48
2017-11-17T00:39:35.895Z,1015.47
2017-11-17T00:40:35.855Z,1015.45
2017-11-17T00:41:35.825Z,1015.48
2017-11-17T00:42:35.819Z,1015.51
2017-11-17T00:43:35.749Z,1015.54
2017-11-17T00:44:35.709Z,1015.45
2017-11-17T00:45:35.670Z,1015.53
2017-11-17T00:46:35.670Z,1015.54
2017-11-17T00:47:35.611Z,1015.52
2017-11-17T00:48:35.562Z,1015.54
2017-11-17T00:49:35.531Z,1015.53
2017-11-17T00:50:35.490Z,1015.60
2017-11-17T00:51:35.463Z,1015.61
2017-11-17T00:52:35.416Z,1015.61
2017-11-17T00:53:35.372Z,1015.60
2017-11-17T00:54:35.343Z,1015.62
2017-11-17T00:55:35.308Z,1015.56
2017-11-17T00:56:35.269Z,1015.45
2017-11-17T00:57:35.231Z,1015.55
2017-11-17T00:58:35.190Z,1015.54
2017-11-17T00:59:35.164Z,1015.54
2017-11-17T01:00:35.140Z,1015.53
2017-11-17T01:01:35.110Z,1015.51
2017-11-17T01:02:35.046Z,1015.56
2017-11-17T01:03:35.015Z,1015.57
2017-11-17T01:04:34.987Z,1015.58
2017-11-17T01:05:34.949Z,1015.59
2017-11-17T01:06:34.910Z,1015.63
2017-11-17T01:07:35.223Z,1015.56
2017-11-17T01:08:34.830Z,1015.58
2017-11-17T01:09:34.799Z,1015.57
2017-11-17T01:10:34.755Z,1015.59
2017-11-17T01:11:34.727Z,1015.52
2017-11-17T01:12:34.745Z,1015.65
2017-11-17T01:13:34.639Z,1015.58
2017-11-17T01:14:34.613Z,1015.64
2017-11-17T01:15:34.600Z,1015.60
2017-11-17T01:16:34.536Z,1015.70
2017-11-17T01:17:34.513Z,1015.61
2017-11-17T01:18:34.463Z,1015.66
2017-11-17T01:19:34.425Z,1015.63
2017-11-17T01:20:34.409Z,1015.66
2017-11-17T01:21:34.351Z,1015.67
2017-11-17T01:22:34.327Z,1015.70
2017-11-17T01:23:34.277Z,1015.69
2017-11-17T01:24:34.243Z,1015.67
2017-11-17T01:25:34.206Z,1015.70
2017-11-17T01:26:34.169Z,1015.68
2017-11-17T01:27:34.137Z,1015.60
2017-11-17T01:28:34.103Z,1015.69
2017-11-17T01:29:34.058Z,1015.67
2017-11-17T01:30:34.041Z,1015.61
2017-11-17T01:31:33.987Z,1015.65
2017-11-17T01:32:33.950Z,1015.63
2017-11-17T01:33:33.934Z,1015.63
2017-11-17T01:34:34.109Z,1015.64
2017-11-17T01:35:34.024Z,1015.74
2017-11-17T01:36:34.114Z,1015.71
2017-11-17T01:37:33.765Z,1015.67
2017-11-17T01:38:33.729Z,1015.82
2017-11-17T01:39:33.692Z,1015.77
2017-11-17T01:40:33.652Z,1015.78
2017-11-17T01:41:33.615Z,1015.77
2017-11-17T01:42:33.582Z,1015.83
2017-11-17T01:43:33.544Z,1015.84
2017-11-17T01:44:33.508Z,1015.81
2017-11-17T01:45:33.472Z,1015.81
2017-11-17T01:46:33.430Z,1015.81
2017-11-17T01:47:33.395Z,1015.85
2017-11-17T01:48:33.361Z,1015.82
2017-11-17T01:49:33.320Z,1015.85
2017-11-17T01:50:33.298Z,1015.84
2017-11-17T01:51:33.246Z,1015.82
2017-11-17T01:52:33.450Z,1015.84
2017-11-17T01:53:33.172Z,1015.88
2017-11-17T01:54:33.137Z,1015.83
2017-11-17T01:55:33.099Z,1015.82
2017-11-17T01:56:33.078Z,1015.85
2017-11-17T01:57:33.026Z,1015.87
2017-11-17T01:58:32.988Z,1015.91
2017-11-17T01:59:32.946Z,1015.88
2017-11-17T02:00:32.954Z,1015.89
2017-11-17T02:01:32.878Z,1015.85
2017-11-17T02:02:32.863Z,1015.87
2017-11-17T02:03:32.817Z,1015.83
2017-11-17T02:04:32.783Z,1015.80
2017-11-17T02:05:32.729Z,1015.84
2017-11-17T02:06:32.685Z,1015.83
2017-11-17T02:07:32.655Z,1015.83
2017-11-17T02:08:32.619Z,1015.83
2017-11-17T02:09:32.583Z,1015.82
2017-11-17T02:10:32.549Z,1015.81
2017-11-17T02:11:32.525Z,1015.78
2017-11-17T02:12:32.468Z,1015.78
2017-11-17T02:13:32.430Z,1015.76
2017-11-17T02:14:32.394Z,1015.78
2017-11-17T02:15:32.371Z,1015.74
2017-11-17T02:16:32.334Z,1015.80
2017-11-17T02:17:32.279Z,1015.78
2017-11-17T02:18:33.009Z,1015.78
2017-11-17T02:19:32.209Z,1015.78
2017-11-17T02:20:32.172Z,1015.77
2017-11-17T02:21:32.132Z,1015.71
2017-11-17T02:22:32.298Z,1015.80
2017-11-17T02:23:32.060Z,1015.82
2017-11-17T02:24:32.025Z,1015.75
2017-11-17T02:25:31.985Z,1015.88
2017-11-17T02:26:31.948Z,1015.83
2017-11-17T02:27:31.910Z,1015.84
2017-11-17T02:28:32.606Z,1015.88
2017-11-17T02:29:31.838Z,1015.81
2017-11-17T02:30:31.815Z,1015.87
2017-11-17T02:31:31.761Z,1015.84
2017-11-17T02:32:31.726Z,1015.84
2017-11-17T02:33:31.689Z,1015.85
2017-11-17T02:34:31.902Z,1015.86
2017-11-17T02:35:31.615Z,1015.83
2017-11-17T02:36:31.578Z,1015.92
2017-11-17T02:37:31.539Z,1015.92
2017-11-17T02:38:31.504Z,1015.94
2017-11-17T02:39:31.906Z,1015.92
2017-11-17T02:40:31.428Z,1015.93
2017-11-17T02:41:31.391Z,1015.83
2017-11-17T02:42:31.353Z,1015.91
2017-11-17T02:43:31.316Z,1015.92
2017-11-17T02:44:31.281Z,1015.90
2017-11-17T02:45:31.255Z,1015.92
2017-11-17T02:46:31.205Z,1015.92
2017-11-17T02:47:31.168Z,1015.93
2017-11-17T02:48:31.134Z,1015.93
2017-11-17T02:49:31.102Z,1015.89
2017-11-17T02:50:31.060Z,1015.87
2017-11-17T02:51:31.025Z,1015.98
2017-11-17T02:52:30.992Z,1015.88
2017-11-17T02:53:30.948Z,1015.92
2017-11-17T02:54:30.910Z,1015.89
2017-11-17T02:55:30.873Z,1015.93
2017-11-17T02:56:30.837Z,1015.92
2017-11-17T02:57:30.801Z,1015.82
2017-11-17T02:58:30.771Z,1015.93
2017-11-17T02:59:30.727Z,1015.87
2017-11-17T03:00:30.692Z,1015.94
2017-11-17T03:01:30.653Z,1015.84
2017-11-17T03:02:30.615Z,1015.95
2017-11-17T03:03:30.579Z,1016.00
2017-11-17T03:04:30.541Z,1016.02
2017-11-17T03:05:30.507Z,1016.02
2017-11-17T03:06:30.463Z,1016.05
2017-11-17T03:07:30.432Z,1016.05
2017-11-17T03:08:30.394Z,1016.07
2017-11-17T03:09:30.358Z,1016.05
2017-11-17T03:10:30.321Z,1016.10
2017-11-17T03:11:30.283Z,1016.09
2017-11-17T03:12:30.249Z,1016.09
2017-11-17T03:13:30.211Z,1016.09
2017-11-17T03:14:30.172Z,1016.11
2017-11-17T03:15:30.137Z,1016.10
2017-11-17T03:16:30.099Z,1016.14
2017-11-17T03:17:30.062Z,1016.12
2017-11-17T03:18:30.025Z,1016.10
2017-11-17T03:19:29.989Z,1016.12
2017-11-17T03:20:29.952Z,1015.99
2017-11-17T03:21:29.915Z,1016.12
2017-11-17T03:22:30.102Z,1016.15
2017-11-17T03:23:29.842Z,1016.13
2017-11-17T03:24:29.804Z,1016.19
2017-11-17T03:25:29.767Z,1016.18
2017-11-17T03:26:29.725Z,1016.21
2017-11-17T03:27:29.692Z,1016.28
2017-11-17T03:28:30.387Z,1016.28
2017-11-17T03:29:29.621Z,1016.36
2017-11-17T03:30:29.584Z,1016.35
2017-11-17T03:31:29.545Z,1016.40
2017-11-17T03:32:29.516Z,1016.37
2017-11-17T03:33:29.488Z,1016.38
2017-11-17T03:34:29.432Z,1016.41
2017-11-17T03:35:29.401Z,1016.45
2017-11-17T03:36:29.360Z,1016.45
2017-11-17T03:37:29.327Z,1016.51
2017-11-17T03:38:29.290Z,1016.50
2017-11-17T03:39:29.260Z,1016.37
2017-11-17T03:40:29.215Z,1016.54
2017-11-17T03:41:29.179Z,1016.45
2017-11-17T03:42:29.146Z,1016.58
2017-11-17T03:43:29.103Z,1016.56
2017-11-17T03:44:29.071Z,1016.49
2017-11-17T03:45:29.025Z,1016.55
2017-11-17T03:46:28.989Z,1016.60
2017-11-17T03:47:28.956Z,1016.46
2017-11-17T03:48:28.918Z,1016.57
2017-11-17T03:49:28.880Z,1016.59
2017-11-17T03:50:28.844Z,1016.65
2017-11-17T03:51:28.807Z,1016.64
2017-11-17T03:52:28.773Z,1016.65
2017-11-17T03:53:28.730Z,1016.63
2017-11-17T03:54:28.697Z,1016.70
2017-11-17T03:55:28.658Z,1016.60
2017-11-17T03:56:28.622Z,1016.68
2017-11-17T03:57:28.585Z,1016.70
2017-11-17T03:58:28.549Z,1016.71
2017-11-17T03:59:28.510Z,1016.66
2017-11-17T04:00:28.481Z,1016.75
2017-11-17T04:01:28.435Z,1016.69
2017-11-17T04:02:28.401Z,1016.69
2017-11-17T04:03:28.362Z,1016.66
2017-11-17T04:04:28.325Z,1016.72
2017-11-17T04:05:28.286Z,1016.77
2017-11-17T04:06:28.254Z,1016.72
2017-11-17T04:07:28.215Z,1016.72
2017-11-17T04:08:28.175Z,1016.73
2017-11-17T04:09:28.140Z,1016.76
2017-11-17T04:10:28.101Z,1016.69
2017-11-17T04:11:28.071Z,1016.69
2017-11-17T04:12:28.029Z,1016.67
2017-11-17T04:13:27.990Z,1016.68
2017-11-17T04:14:27.956Z,1016.68
2017-11-17T04:15:27.918Z,1016.65
2017-11-17T04:16:27.881Z,1016.69
2017-11-17T04:17:27.843Z,1016.69
2017-11-17T04:18:27.807Z,1016.67
2017-11-17T04:19:27.769Z,1016.67
2017-11-17T04:20:27.735Z,1016.70
2017-11-17T04:21:27.694Z,1016.73
2017-11-17T04:22:27.659Z,1016.77
2017-11-17T04:23:27.621Z,1016.76
2017-11-17T04:24:27.588Z,1016.79
2017-11-17T04:25:27.552Z,1016.82
2017-11-17T04:26:27.511Z,1016.84
2017-11-17T04:27:27.491Z,1016.79
2017-11-17T04:28:27.436Z,1016.79
2017-11-17T04:29:27.398Z,1016.78
2017-11-17T04:30:27.362Z,1016.78
2017-11-17T04:31:27.322Z,1016.79
2017-11-17T04:32:27.289Z,1016.77
2017-11-17T04:33:27.251Z,1016.82
2017-11-17T04:34:27.210Z,1016.79
2017-11-17T04:35:27.177Z,1016.75
2017-11-17T04:36:27.140Z,1016.80
2017-11-17T04:37:27.099Z,1016.88
2017-11-17T04:38:27.063Z,1016.86
2017-11-17T04:39:27.026Z,1016.81
2017-11-17T04:40:26.995Z,1016.89
2017-11-17T04:41:26.953Z,1016.89
2017-11-17T04:42:26.917Z,1016.80
2017-11-17T04:43:26.880Z,1016.86
2017-11-17T04:44:26.840Z,1016.87
2017-11-17T04:45:26.803Z,1016.91
2017-11-17T04:46:26.766Z,1016.88
2017-11-17T04:47:26.728Z,1016.87
2017-11-17T04:48:26.696Z,1016.90
2017-11-17T04:49:26.653Z,1016.86
2017-11-17T04:50:26.620Z,1016.87
2017-11-17T04:51:26.596Z,1016.85
2017-11-17T04:52:26.545Z,1016.86
2017-11-17T04:53:26.505Z,1016.86
2017-11-17T04:54:26.473Z,1016.83
2017-11-17T04:55:26.433Z,1016.84
2017-11-17T04:56:26.396Z,1016.81
2017-11-17T04:57:26.354Z,1016.82
2017-11-17T04:58:26.320Z,1016.84
2017-11-17T04:59:26.287Z,1016.81
2017-11-17T05:00:26.246Z,1016.83
2017-11-17T05:01:26.208Z,1016.83
2017-11-17T05:02:26.173Z,1016.85
2017-11-17T05:03:26.137Z,1016.84
2017-11-17T05:04:26.117Z,1016.87
2017-11-17T05:05:26.059Z,1016.85
2017-11-17T05:06:26.025Z,1016.86
2017-11-17T05:07:25.995Z,1016.84
2017-11-17T05:08:25.951Z,1016.95
2017-11-17T05:09:25.912Z,1016.91
2017-11-17T05:10:25.874Z,1016.91
2017-11-17T05:11:25.838Z,1016.92
2017-11-17T05:12:25.802Z,1016.85
2017-11-17T05:13:25.762Z,1017.02
2017-11-17T05:14:25.725Z,1016.94
2017-11-17T05:15:25.687Z,1017.04
2017-11-17T05:16:25.652Z,1016.99
2017-11-17T05:17:25.616Z,1016.98
2017-11-17T05:18:25.577Z,1017.01
2017-11-17T05:19:25.547Z,1017.03
2017-11-17T05:20:25.502Z,1017.09
2017-11-17T05:21:25.464Z,1017.13
2017-11-17T05:22:25.459Z,1017.12
2017-11-17T05:23:25.827Z,1017.09
2017-11-17T05:24:25.355Z,1017.11
2017-11-17T05:25:25.358Z,1017.11
2017-11-17T05:26:25.282Z,1017.19
2017-11-17T05:27:25.243Z,1017.16
2017-11-17T05:28:25.206Z,1017.17
2017-11-17T05:29:25.169Z,1017.21
2017-11-17T05:30:25.133Z,1017.20
2017-11-17T05:31:25.096Z,1017.23
2017-11-17T05:32:25.059Z,1017.30
2017-11-17T05:33:25.020Z,1017.19
2017-11-17T05:34:24.984Z,1017.25
2017-11-17T05:35:24.948Z,1017.21
2017-11-17T05:36:24.909Z,1017.28
2017-11-17T05:37:24.871Z,1017.25
2017-11-17T05:38:24.834Z,1017.26
2017-11-17T05:39:24.797Z,1017.23
2017-11-17T05:40:24.761Z,1017.22
2017-11-17T05:41:24.725Z,1017.20
2017-11-17T05:42:24.686Z,1017.24
2017-11-17T05:43:24.649Z,1017.23
2017-11-17T05:44:24.611Z,1017.19
2017-11-17T05:45:24.582Z,1017.31
2017-11-17T05:46:24.556Z,1017.27
2017-11-17T05:47:24.501Z,1017.25
2017-11-17T05:48:24.469Z,1017.34
2017-11-17T05:49:24.435Z,1017.26
2017-11-17T05:50:24.399Z,1017.30
2017-11-17T05:51:24.351Z,1017.29
2017-11-17T05:52:24.314Z,1017.30
2017-11-17T05:53:24.279Z,1017.35
2017-11-17T05:54:24.241Z,1017.31
2017-11-17T05:55:24.204Z,1017.32
2017-11-17T05:56:24.167Z,1017.26
2017-11-17T05:57:24.129Z,1017.36
2017-11-17T05:58:24.091Z,1017.23
2017-11-17T05:59:24.055Z,1017.33
2017-11-17T06:00:24.019Z,1017.26
2017-11-17T06:01:23.980Z,1017.36
2017-11-17T06:02:23.942Z,1017.37
2017-11-17T06:03:23.905Z,1017.38
2017-11-17T06:04:23.870Z,1017.35
2017-11-17T06:05:23.830Z,1017.41
2017-11-17T06:06:23.794Z,1017.41
2017-11-17T06:07:23.765Z,1017.45
2017-11-17T06:08:23.751Z,1017.40
2017-11-17T06:09:23.679Z,1017.45
2017-11-17T06:10:23.646Z,1017.36
2017-11-17T06:11:23.908Z,1017.45
2017-11-17T06:12:23.572Z,1017.50
2017-11-17T06:13:23.532Z,1017.50
2017-11-17T06:14:23.496Z,1017.48
2017-11-17T06:15:23.460Z,1017.52
2017-11-17T06:16:23.421Z,1017.50
2017-11-17T06:17:23.384Z,1017.53
2017-11-17T06:18:23.348Z,1017.55
2017-11-17T06:19:23.310Z,1017.56
2017-11-17T06:20:23.280Z,1017.49
2017-11-17T06:21:23.230Z,1017.58
2017-11-17T06:22:23.199Z,1017.55
2017-11-17T06:23:23.162Z,1017.59
2017-11-17T06:24:23.124Z,1017.61
2017-11-17T06:25:23.087Z,1017.65
2017-11-17T06:26:23.049Z,1017.66
2017-11-17T06:27:23.013Z,1017.64
2017-11-17T06:28:22.975Z,1017.65
2017-11-17T06:29:22.938Z,1017.70
2017-11-17T06:30:22.899Z,1017.68
2017-11-17T06:31:22.865Z,1017.70
2017-11-17T06:32:22.824Z,1017.70
2017-11-17T06:33:22.787Z,1017.71
2017-11-17T06:34:22.755Z,1017.70
2017-11-17T06:35:22.714Z,1017.69
2017-11-17T06:36:22.716Z,1017.76
2017-11-17T06:37:22.637Z,1017.78
2017-11-17T06:38:22.599Z,1017.76
2017-11-17T06:39:22.563Z,1017.77
2017-11-17T06:40:22.530Z,1017.77
2017-11-17T06:41:22.487Z,1017.78
2017-11-17T06:42:22.450Z,1017.77
2017-11-17T06:43:22.413Z,1017.81
2017-11-17T06:44:22.377Z,1017.80
2017-11-17T06:45:22.338Z,1017.84
2017-11-17T06:46:22.302Z,1017.84
2017-11-17T06:47:22.264Z,1017.88
2017-11-17T06:48:22.224Z,1017.85
2017-11-17T06:49:22.189Z,1017.84
2017-11-17T06:50:22.152Z,1017.87
2017-11-17T06:51:22.116Z,1017.86
2017-11-17T06:52:22.096Z,1017.87
2017-11-17T06:53:22.039Z,1017.91
2017-11-17T06:54:22.002Z,1017.89
2017-11-17T06:55:21.966Z,1017.93
2017-11-17T06:56:21.927Z,1017.94
2017-11-17T06:57:21.888Z,1017.98
2017-11-17T06:58:21.854Z,1017.95
2017-11-17T06:59:21.814Z,1017.95
2017-11-17T07:00:21.777Z,1017.90
2017-11-17T07:01:21.738Z,1018.00
2017-11-17T07:02:21.797Z,1018.01
2017-11-17T07:03:21.665Z,1017.95
2017-11-17T07:04:21.624Z,1017.98
2017-11-17T07:05:21.588Z,1017.94
2017-11-17T07:06:21.552Z,1017.99
2017-11-17T07:07:21.514Z,1018.04
2017-11-17T07:08:21.478Z,1017.97
2017-11-17T07:09:21.438Z,1018.02
2017-11-17T07:10:21.419Z,1018.02
2017-11-17T07:11:21.365Z,1018.12
2017-11-17T07:12:22.014Z,1018.10
2017-11-17T07:13:21.290Z,1018.08
2017-11-17T07:14:21.249Z,1018.03
2017-11-17T07:15:21.211Z,1018.17
2017-11-17T07:16:21.173Z,1018.13
2017-11-17T07:17:21.138Z,1018.18
2017-11-17T07:18:21.100Z,1018.20
2017-11-17T07:19:21.061Z,1018.19
2017-11-17T07:20:21.151Z,1018.25
2017-11-17T07:21:20.990Z,1018.24
2017-11-17T07:22:20.948Z,1018.16
2017-11-17T07:23:20.910Z,1018.27
2017-11-17T07:24:20.872Z,1018.27
2017-11-17T07:25:21.376Z,1018.28
2017-11-17T07:26:20.799Z,1018.27
2017-11-17T07:27:21.314Z,1018.26
2017-11-17T07:28:20.722Z,1018.30
2017-11-17T07:29:20.682Z,1018.29
2017-11-17T07:30:20.646Z,1018.32
2017-11-17T07:31:20.607Z,1018.34
2017-11-17T07:32:20.641Z,1018.37
2017-11-17T07:33:20.531Z,1018.37
2017-11-17T07:34:20.509Z,1018.44
2017-11-17T07:35:20.456Z,1018.35
2017-11-17T07:36:20.419Z,1018.40
2017-11-17T07:37:20.380Z,1018.32
2017-11-17T07:38:20.343Z,1018.39
2017-11-17T07:39:20.305Z,1018.42
2017-11-17T07:40:20.287Z,1018.41
2017-11-17T07:41:20.230Z,1018.47
2017-11-17T07:42:20.191Z,1018.39
2017-11-17T07:43:20.150Z,1018.42
2017-11-17T07:44:20.148Z,1018.48
2017-11-17T07:45:20.079Z,1018.45
2017-11-17T07:46:20.092Z,1018.48
2017-11-17T07:47:20.005Z,1018.42
2017-11-17T07:48:19.964Z,1018.51
2017-11-17T07:49:19.928Z,1018.43
2017-11-17T07:50:19.889Z,1018.48
2017-11-17T07:51:19.864Z,1018.47
2017-11-17T07:52:19.816Z,1018.53
2017-11-17T07:53:19.779Z,1018.58
2017-11-17T07:54:19.737Z,1018.51
2017-11-17T07:55:19.703Z,1018.61
2017-11-17T07:56:19.669Z,1018.58
2017-11-17T07:57:19.629Z,1018.67
2017-11-17T07:58:19.591Z,1018.69
2017-11-17T07:59:19.553Z,1018.72
2017-11-17T08:00:19.518Z,1018.79
2017-11-17T08:01:19.481Z,1018.77
2017-11-17T08:02:19.445Z,1018.76
2017-11-17T08:03:19.409Z,1018.82
2017-11-17T08:04:19.375Z,1018.79
2017-11-17T08:05:19.338Z,1018.86
2017-11-17T08:06:19.303Z,1018.85
2017-11-17T08:07:19.269Z,1018.87
2017-11-17T08:08:19.248Z,1018.88
2017-11-17T08:09:19.200Z,1018.87
2017-11-17T08:10:19.165Z,1018.90
2017-11-17T08:11:19.134Z,1018.96
2017-11-17T08:12:19.099Z,1018.91
2017-11-17T08:13:19.063Z,1018.94
2017-11-17T08:14:19.029Z,1018.92
2017-11-17T08:15:18.995Z,1018.82
2017-11-17T08:16:18.965Z,1018.90
2017-11-17T08:17:18.930Z,1018.93
2017-11-17T08:18:18.897Z,1018.84
2017-11-17T08:19:18.864Z,1018.98
2017-11-17T08:20:18.827Z,1019.07
2017-11-17T08:21:18.814Z,1018.92
2017-11-17T08:22:18.764Z,1019.01
2017-11-17T08:23:18.741Z,1018.97
2017-11-17T08:24:18.701Z,1018.91
2017-11-17T08:25:18.662Z,1019.01
2017-11-17T08:26:18.632Z,1019.03
2017-11-17T08:27:18.598Z,1019.12
2017-11-17T08:28:18.566Z,1019.02
2017-11-17T08:29:18.547Z,1019.09
2017-11-17T08:30:18.502Z,1019.13
2017-11-17T08:31:18.472Z,1019.15
2017-11-17T08:32:18.439Z,1019.15
2017-11-17T08:33:18.411Z,1019.16
2017-11-17T08:34:18.379Z,1019.15
2017-11-17T08:35:18.358Z,1019.19
2017-11-17T08:36:18.317Z,1019.15
2017-11-17T08:37:18.285Z,1019.16
2017-11-17T08:38:18.257Z,1019.16
2017-11-17T08:39:18.227Z,1019.15
2017-11-17T08:40:18.197Z,1019.15
2017-11-17T08:41:18.168Z,1019.08
2017-11-17T08:42:18.140Z,1019.14
2017-11-17T08:43:18.110Z,1019.20
2017-11-17T08:44:18.082Z,1019.17
2017-11-17T08:45:18.054Z,1019.23
2017-11-17T08:46:18.026Z,1019.21
2017-11-17T08:47:17.998Z,1019.25
2017-11-17T08:48:17.973Z,1019.21
2017-11-17T08:49:17.944Z,1019.19
2017-11-17T08:50:18.123Z,1019.04
2017-11-17T08:51:17.889Z,1018.96
2017-11-17T08:52:17.861Z,1018.90
2017-11-17T08:53:17.832Z,1018.84
2017-11-17T08:54:17.807Z,1018.90
2017-11-17T08:55:17.779Z,1018.91
2017-11-17T08:56:17.760Z,1018.84
2017-11-17T08:57:17.722Z,1018.85
2017-11-17T08:58:17.695Z,1018.88
2017-11-17T08:59:17.662Z,1018.89
2017-11-17T09:00:17.633Z,1018.85
2017-11-17T09:01:17.603Z,1018.84
2017-11-17T09:02:17.571Z,1018.74
2017-11-17T09:03:17.542Z,1018.78
2017-11-17T09:04:17.509Z,1018.75
2017-11-17T09:05:17.479Z,1018.86
2017-11-17T09:06:17.448Z,1018.85
2017-11-17T09:07:17.416Z,1018.82
2017-11-17T09:08:17.385Z,1018.83
2017-11-17T09:09:17.346Z,1018.82
2017-11-17T09:10:17.326Z,1018.79
2017-11-17T09:11:17.292Z,1018.84
2017-11-17T09:12:17.255Z,1018.89
2017-11-17T09:13:17.221Z,1018.88
2017-11-17T09:14:17.189Z,1018.91
2017-11-17T09:15:17.154Z,1018.94
2017-11-17T09:16:17.121Z,1018.97
2017-11-17T09:17:17.088Z,1019.14
2017-11-17T09:18:17.054Z,1019.18
2017-11-17T09:19:17.023Z,1019.20
2017-11-17T09:20:16.991Z,1019.28
2017-11-17T09:21:16.991Z,1019.26
2017-11-17T09:22:16.922Z,1019.27
2017-11-17T09:23:17.275Z,1019.37
2017-11-17T09:24:16.859Z,1019.33
2017-11-17T09:25:16.828Z,1019.41
2017-11-17T09:26:16.799Z,1019.44
2017-11-17T09:27:16.767Z,1019.58
2017-11-17T09:28:16.735Z,1019.60
2017-11-17T09:29:16.712Z,1019.75
2017-11-17T09:30:16.677Z,1019.80
2017-11-17T09:31:16.653Z,1019.92
2017-11-17T09:32:16.622Z,1020.03
2017-11-17T09:33:16.594Z,1020.26
2017-11-17T09:34:17.940Z,1020.36
2017-11-17T09:35:16.541Z,1020.43
2017-11-17T09:36:16.579Z,1020.43
2017-11-17T09:37:16.488Z,1020.68
2017-11-17T09:38:16.463Z,1020.83
2017-11-17T09:39:16.438Z,1020.64
2017-11-17T09:40:16.421Z,1020.37
2017-11-17T09:41:16.389Z,1020.93
2017-11-17T09:42:16.368Z,1021.50
2017-11-17T09:43:17.547Z,1021.89
2017-11-17T09:44:16.317Z,1022.23
2017-11-17T09:45:16.295Z,1022.20
2017-11-17T09:46:16.269Z,1022.01
2017-11-17T09:47:16.262Z,1022.08
2017-11-17T09:48:16.226Z,1022.42
2017-11-17T09:49:16.200Z,1022.47
2017-11-17T09:50:16.179Z,1022.14
2017-11-17T09:51:16.179Z,1022.27
2017-11-17T09:52:16.139Z,1022.51
2017-11-17T09:53:16.121Z,1022.59
2017-11-17T09:54:16.092Z,1022.79
2017-11-17T09:55:16.072Z,1022.99
2017-11-17T09:56:16.100Z,1023.14
2017-11-17T09:57:16.027Z,1022.98
2017-11-17T09:58:16.163Z,1022.78
2017-11-17T09:59:15.988Z,1022.32
2017-11-17T10:00:15.968Z,1019.77
2017-11-17T10:01:15.945Z,1019.24
2017-11-17T10:02:16.167Z,1019.18
2017-11-17T10:03:15.908Z,1019.26
2017-11-17T10:04:15.883Z,1019.30
2017-11-17T10:05:15.861Z,1019.21
2017-11-17T10:06:15.843Z,1019.21
2017-11-17T10:07:15.816Z,1019.15
2017-11-17T10:08:15.794Z,1019.19
2017-11-17T10:09:15.769Z,1019.32
2017-11-17T10:10:15.747Z,1020.20
2017-11-17T10:11:15.721Z,1019.87
2017-11-17T10:12:15.700Z,1019.56
2017-11-17T10:13:15.674Z,1019.44
2017-11-17T10:14:15.649Z,1020.92
2017-11-17T10:15:15.625Z,1020.81
2017-11-17T10:16:15.603Z,1020.77
2017-11-17T10:17:15.577Z,1021.19
2017-11-17T10:18:15.556Z,1021.28
2017-11-17T10:19:15.531Z,1020.94
2017-11-17T10:20:15.507Z,1020.52
2017-11-17T10:21:15.485Z,1020.42
2017-11-17T10:22:15.463Z,1020.50
2017-11-17T10:23:15.961Z,1020.21
2017-11-17T10:24:15.420Z,1020.15
2017-11-17T10:25:15.396Z,1020.08
2017-11-17T10:26:15.369Z,1019.70
2017-11-17T10:27:15.355Z,1019.93
2017-11-17T10:28:15.332Z,1019.82
2017-11-17T10:29:15.313Z,1019.80
2017-11-17T10:30:15.291Z,1019.57
2017-11-17T10:31:15.270Z,1019.76
2017-11-17T10:32:15.248Z,1019.76
2017-11-17T10:33:15.229Z,1019.80
2017-11-17T10:34:15.208Z,1019.64
2017-11-17T10:35:15.279Z,1019.51
2017-11-17T10:36:15.165Z,1019.61
2017-11-17T10:37:15.142Z,1019.60
2017-11-17T10:38:15.123Z,1019.15
2017-11-17T10:39:15.104Z,1019.21
2017-11-17T10:40:15.081Z,1019.41
2017-11-17T10:41:15.079Z,1019.54
2017-11-17T10:42:15.043Z,1019.59
2017-11-17T10:43:15.015Z,1019.51
2017-11-17T10:44:14.996Z,1019.48
2017-11-17T10:45:14.973Z,1019.41
2017-11-17T10:46:14.951Z,1019.49
2017-11-17T10:47:14.932Z,1019.51
2017-11-17T10:48:14.911Z,1019.42
2017-11-17T10:49:14.888Z,1019.39
2017-11-17T10:50:14.868Z,1019.44
2017-11-17T10:51:14.847Z,1019.41
2017-11-17T10:52:14.829Z,1019.45
2017-11-17T10:53:14.806Z,1019.44
2017-11-17T10:54:14.786Z,1019.36
2017-11-17T10:55:14.764Z,1019.38
2017-11-17T10:56:14.744Z,1019.36
2017-11-17T10:57:14.724Z,1019.36
2017-11-17T10:58:14.857Z,1019.29
2017-11-17T10:59:14.698Z,1019.27
2017-11-17T11:00:14.770Z,1019.23
2017-11-17T11:01:14.648Z,1019.16
2017-11-17T11:02:14.861Z,1019.15
2017-11-17T11:03:14.600Z,1019.19
2017-11-17T11:04:14.581Z,1019.16
2017-11-17T11:05:14.562Z,1019.17
2017-11-17T11:06:14.540Z,1019.20
2017-11-17T11:07:14.520Z,1019.14
2017-11-17T11:08:14.497Z,1019.11
2017-11-17T11:09:14.481Z,1019.10
2017-11-17T11:10:14.458Z,1019.15
2017-11-17T11:11:14.439Z,1019.10
2017-11-17T11:12:14.425Z,1019.07
2017-11-17T11:13:14.397Z,1019.10
2017-11-17T11:14:14.378Z,1019.14
2017-11-17T11:15:14.360Z,1019.17
2017-11-17T11:16:14.337Z,1019.13
2017-11-17T11:17:14.316Z,1019.08
2017-11-17T11:18:14.297Z,1019.09
2017-11-17T11:19:14.277Z,1019.16
2017-11-17T11:20:14.263Z,1019.13
2017-11-17T11:21:14.266Z,1019.13
2017-11-17T11:22:14.214Z,1019.07
2017-11-17T11:23:14.198Z,1018.99
2017-11-17T11:24:14.180Z,1018.79
2017-11-17T11:25:14.156Z,1019.02
2017-11-17T11:26:14.136Z,1019.01
2017-11-17T11:27:14.116Z,1019.00
2017-11-17T11:28:14.101Z,1019.00
2017-11-17T11:29:14.076Z,1019.00
2017-11-17T11:30:14.056Z,1018.91
2017-11-17T11:31:14.036Z,1018.98
2017-11-17T11:32:14.016Z,1018.97
2017-11-17T11:33:13.992Z,1018.86
2017-11-17T11:34:13.977Z,1018.88
2017-11-17T11:35:13.955Z,1018.81
2017-11-17T11:36:13.937Z,1018.92
2017-11-17T11:37:13.915Z,1018.90
2017-11-17T11:38:13.907Z,1018.93
2017-11-17T11:39:13.877Z,1018.91
2017-11-17T11:40:13.859Z,1018.85
2017-11-17T11:41:13.838Z,1018.88
2017-11-17T11:42:13.858Z,1018.83
2017-11-17T11:43:13.804Z,1018.84
2017-11-17T11:44:13.780Z,1018.73
2017-11-17T11:45:13.758Z,1018.80
2017-11-17T11:46:13.762Z,1018.79
2017-11-17T11:47:13.728Z,1018.81
2017-11-17T11:48:14.196Z,1018.80
2017-11-17T11:49:13.679Z,1018.73
2017-11-17T11:50:13.662Z,1018.71
2017-11-17T11:51:13.641Z,1018.68
2017-11-17T11:52:13.623Z,1018.66
2017-11-17T11:53:13.604Z,1018.68
2017-11-17T11:54:13.583Z,1018.63
2017-11-17T11:55:13.563Z,1018.65
2017-11-17T11:56:13.544Z,1018.60
2017-11-17T11:57:13.541Z,1018.59
2017-11-17T11:58:13.507Z,1018.55
2017-11-17T11:59:13.968Z,1018.54
2017-11-17T12:00:13.559Z,1018.52
2017-11-17T12:01:13.478Z,1018.48
2017-11-17T12:02:13.452Z,1018.47
2017-11-17T12:03:13.409Z,1018.45
2017-11-17T12:04:13.391Z,1018.39
2017-11-17T12:05:13.379Z,1018.42